Time;durP1;ratioP1;P1;durP2;ratioP2;P2;SDS_P1;SDS_P2;PMS_P1;PMS_P2;Temp;Humidity;BMP_temperature;BMP_pressure;BME280_temperature;BME280_humidity;BME280_pressure;Samples;Min_cycle;Max_cycle;Signal;HPM_P1;HPM_P2
2024/03/14 00:02:16;;;;;;;23.13;14.90;;;;;;;;;;4991407;28;20558;-79
2024/03/14 00:04:42;;;;;;;22.27;13.77;;;;;;;;;;4995305;28;20429;-82
2024/03/14 00:07:08;;;;;;;21.80;13.90;;;;;;;;;;4993732;28;20206;-78
2024/03/14 00:09:34;;;;;;;23.47;14.57;;;;;;;;;;4995045;28;20462;-77
2024/03/14 00:12:00;;;;;;;24.30;15.57;;;;;;;;;;4995174;28;20425;-81
2024/03/14 00:14:26;;;;;;;25.20;15.33;;;;;;;;;;4995047;28;20481;-77
2024/03/14 00:16:52;;;;;;;23.13;13.80;;;;;;;;;;4995354;28;20423;-83
2024/03/14 00:19:21;;;;;;;21.73;13.00;;;;;;;;;;4994972;28;20748;-82
2024/03/14 00:21:47;;;;;;;23.20;13.70;;;;;;;;;;4995061;28;20207;-83
2024/03/14 00:24:13;;;;;;;23.83;14.67;;;;;;;;;;4994919;28;20471;-84
2024/03/14 00:26:39;;;;;;;25.13;15.40;;;;;;;;;;4995028;28;20412;-77
2024/03/14 00:29:05;;;;;;;26.00;15.27;;;;;;;;;;4994735;28;20466;-77
2024/03/14 00:31:32;;;;;;;29.47;14.93;;;;;;;;;;4993328;28;20412;-77
2024/03/14 00:33:58;;;;;;;25.63;15.10;;;;;;;;;;4992352;28;20446;-78
2024/03/14 00:36:24;;;;;;;25.60;15.37;;;;;;;;;;4993281;28;20417;-84
2024/03/14 00:38:50;;;;;;;26.83;15.63;;;;;;;;;;4994180;28;20563;-83
2024/03/14 00:41:16;;;;;;;24.40;14.60;;;;;;;;;;4994648;28;20466;-78
2024/03/14 00:43:42;;;;;;;28.97;16.77;;;;;;;;;;4994635;28;20424;-77
2024/03/14 00:46:08;;;;;;;26.27;14.90;;;;;;;;;;4994283;28;20427;-77
2024/03/14 00:48:34;;;;;;;27.30;17.53;;;;;;;;;;4994579;28;20475;-77
2024/03/14 00:51:00;;;;;;;32.83;17.47;;;;;;;;;;4994470;28;20435;-76
2024/03/14 00:53:26;;;;;;;27.60;15.50;;;;;;;;;;4992424;28;20421;-76
2024/03/14 00:55:52;;;;;;;31.17;17.60;;;;;;;;;;4994113;28;20416;-77
2024/03/14 00:58:18;;;;;;;29.40;16.23;;;;;;;;;;4994375;28;20220;-84
2024/03/14 01:00:43;;;;;;;31.90;18.60;;;;;;;;;;4993333;28;20408;-76
2024/03/14 01:03:10;;;;;;;29.77;18.30;;;;;;;;;;4994190;28;20826;-77
2024/03/14 01:05:37;;;;;;;37.60;19.57;;;;;;;;;;4994277;28;20420;-77
2024/03/14 01:08:05;;;;;;;35.40;19.03;;;;;;;;;;4994266;28;20420;-77
2024/03/14 01:10:31;;;;;;;37.80;19.77;;;;;;;;;;4994238;28;20446;-78
2024/03/14 01:12:57;;;;;;;30.93;19.33;;;;;;;;;;4992860;28;20452;-76
2024/03/14 01:15:23;;;;;;;31.87;16.70;;;;;;;;;;4993833;28;20416;-79
2024/03/14 01:17:49;;;;;;;34.00;20.90;;;;;;;;;;4994032;28;20519;-76
2024/03/14 01:20:16;;;;;;;35.10;18.83;;;;;;;;;;4993734;28;20421;-76
2024/03/14 01:22:42;;;;;;;36.03;19.13;;;;;;;;;;4994023;28;20658;-81
2024/03/14 01:25:08;;;;;;;34.53;19.43;;;;;;;;;;4993933;28;20435;-77
2024/03/14 01:27:34;;;;;;;29.67;18.13;;;;;;;;;;4993913;28;20573;-78
2024/03/14 01:30:01;;;;;;;34.33;19.20;;;;;;;;;;4993323;28;20547;-77
2024/03/14 01:32:26;;;;;;;32.33;19.57;;;;;;;;;;4993831;28;20506;-77
2024/03/14 01:34:53;;;;;;;34.03;19.40;;;;;;;;;;4993816;28;20513;-77
2024/03/14 01:37:21;;;;;;;31.23;18.13;;;;;;;;;;4993730;28;20175;-78
2024/03/14 01:39:49;;;;;;;37.57;20.30;;;;;;;;;;4993646;28;20546;-77
2024/03/14 01:42:15;;;;;;;38.97;19.43;;;;;;;;;;4993646;28;20409;-77
2024/03/14 01:44:47;;;;;;;37.33;19.93;;;;;;;;;;4993255;28;20471;-83
2024/03/14 01:47:13;;;;;;;33.87;19.60;;;;;;;;;;4993543;28;20448;-78
2024/03/14 01:49:39;;;;;;;33.57;19.77;;;;;;;;;;4993639;28;20436;-78
2024/03/14 01:52:05;;;;;;;34.53;21.97;;;;;;;;;;4993547;28;20420;-79
2024/03/14 01:54:34;;;;;;;30.50;18.07;;;;;;;;;;4993312;28;20188;-79
2024/03/14 01:57:00;;;;;;;30.53;17.90;;;;;;;;;;4992179;28;20947;-81
2024/03/14 01:59:30;;;;;;;40.40;20.90;;;;;;;;;;4992927;28;20479;-80
2024/03/14 02:01:57;;;;;;;33.23;18.90;;;;;;;;;;4993367;28;20456;-79
2024/03/14 02:04:28;;;;;;;32.10;17.63;;;;;;;;;;4993381;28;20420;-80
2024/03/14 02:06:59;;;;;;;31.00;19.27;;;;;;;;;;4993341;28;20440;-78
2024/03/14 02:09:28;;;;;;;28.60;18.77;;;;;;;;;;4993415;28;20462;-78
2024/03/14 02:11:54;;;;;;;31.20;19.50;;;;;;;;;;4993220;28;20484;-77
2024/03/14 02:14:20;;;;;;;30.87;19.40;;;;;;;;;;4992923;28;20413;-78
2024/03/14 02:16:46;;;;;;;35.07;20.73;;;;;;;;;;4993291;28;20178;-77
2024/03/14 02:19:12;;;;;;;35.60;20.60;;;;;;;;;;4992939;28;20472;-78
2024/03/14 02:21:39;;;;;;;35.77;19.07;;;;;;;;;;4993238;28;20638;-76
2024/03/14 02:24:06;;;;;;;35.67;19.43;;;;;;;;;;4993236;28;20171;-77
2024/03/14 02:26:32;;;;;;;31.23;18.40;;;;;;;;;;4993109;28;20794;-78
2024/03/14 02:28:58;;;;;;;36.43;20.60;;;;;;;;;;4992853;28;20458;-84
2024/03/14 02:31:24;;;;;;;32.43;17.70;;;;;;;;;;4995476;28;20451;-77
2024/03/14 02:33:49;;;;;;;29.83;18.80;;;;;;;;;;4997547;28;20178;-77
2024/03/14 02:36:15;;;;;;;30.13;19.43;;;;;;;;;;4997540;28;20178;-79
2024/03/14 02:38:41;;;;;;;27.00;17.27;;;;;;;;;;4997386;28;20275;-78
2024/03/14 02:41:08;;;;;;;29.43;17.27;;;;;;;;;;4997563;28;20199;-82
2024/03/14 02:43:34;;;;;;;30.23;19.00;;;;;;;;;;4997558;28;20179;-79
2024/03/14 02:46:00;;;;;;;32.53;19.13;;;;;;;;;;4997216;28;20417;-79
2024/03/14 02:48:26;;;;;;;26.67;18.17;;;;;;;;;;4997370;28;20265;-84
2024/03/14 02:50:52;;;;;;;31.37;20.37;;;;;;;;;;4997481;28;20837;-87
2024/03/14 02:53:18;;;;;;;33.13;18.80;;;;;;;;;;4997423;28;20453;-80
2024/03/14 02:55:44;;;;;;;31.07;19.30;;;;;;;;;;4997280;28;20172;-78
2024/03/14 02:58:11;;;;;;;31.83;19.00;;;;;;;;;;4997163;28;20477;-87
2024/03/14 03:00:38;;;;;;;33.57;18.37;;;;;;;;;;4996770;28;20416;-87
2024/03/14 03:03:06;;;;;;;29.07;18.17;;;;;;;;;;4996979;28;20905;-79
2024/03/14 03:05:32;;;;;;;28.17;18.70;;;;;;;;;;4996927;28;20569;-81
2024/03/14 03:07:59;;;;;;;27.60;17.50;;;;;;;;;;4995676;28;20949;-79
2024/03/14 03:10:25;;;;;;;28.57;17.67;;;;;;;;;;4996765;28;20634;-80
2024/03/14 03:12:51;;;;;;;30.20;18.67;;;;;;;;;;4994960;28;20416;-81
2024/03/14 03:15:17;;;;;;;30.03;18.23;;;;;;;;;;4996009;28;20415;-84
2024/03/14 03:17:43;;;;;;;27.27;18.00;;;;;;;;;;4996287;28;20213;-78
2024/03/14 03:20:10;;;;;;;27.60;16.73;;;;;;;;;;4996387;28;20842;-79
2024/03/14 03:25:23;;;;;;;27.17;17.47;;;;;;;;;;4994628;28;20490;-83
2024/03/14 03:27:49;;;;;;;27.33;16.77;;;;;;;;;;4993594;28;20402;-79
2024/03/14 03:30:16;;;;;;;28.20;18.40;;;;;;;;;;4995844;28;20457;-80
2024/03/14 03:32:45;;;;;;;26.67;17.33;;;;;;;;;;4996228;28;20610;-78
2024/03/14 03:35:17;;;;;;;28.20;17.37;;;;;;;;;;4996077;28;20544;-78
2024/03/14 03:37:43;;;;;;;22.90;15.90;;;;;;;;;;4995107;28;20453;-81
2024/03/14 03:40:15;;;;;;;25.80;17.50;;;;;;;;;;4995988;28;20837;-79
2024/03/14 03:42:41;;;;;;;25.00;16.60;;;;;;;;;;4994924;28;20197;-81
2024/03/14 03:45:10;;;;;;;25.40;17.60;;;;;;;;;;4994957;28;20851;-81
2024/03/14 03:47:37;;;;;;;23.87;15.90;;;;;;;;;;4996310;28;20410;-79
2024/03/14 03:50:03;;;;;;;26.43;18.03;;;;;;;;;;4996288;28;20423;-81
2024/03/14 03:52:31;;;;;;;29.77;16.80;;;;;;;;;;4996366;28;20408;-81
2024/03/14 03:54:58;;;;;;;26.63;16.63;;;;;;;;;;4996055;28;20804;-78
2024/03/14 03:57:24;;;;;;;25.10;17.07;;;;;;;;;;4996079;28;20401;-80
2024/03/14 03:59:51;;;;;;;24.43;15.80;;;;;;;;;;4994366;28;20476;-77
2024/03/14 04:02:19;;;;;;;22.03;16.33;;;;;;;;;;4996094;28;20449;-78
2024/03/14 04:04:46;;;;;;;28.00;16.73;;;;;;;;;;4994691;28;20918;-82
2024/03/14 04:07:14;;;;;;;24.90;15.27;;;;;;;;;;4995771;28;20412;-81
2024/03/14 04:09:46;;;;;;;24.73;16.97;;;;;;;;;;4995877;28;20451;-81
2024/03/14 04:12:14;;;;;;;23.70;18.33;;;;;;;;;;4995849;28;20786;-83
2024/03/14 04:14:43;;;;;;;24.97;15.57;;;;;;;;;;4994469;28;20944;-79
2024/03/14 04:17:11;;;;;;;25.10;16.67;;;;;;;;;;4995748;28;20861;-77
2024/03/14 04:19:37;;;;;;;22.90;15.40;;;;;;;;;;4995658;28;20861;-78
2024/03/14 04:22:04;;;;;;;26.53;15.20;;;;;;;;;;4995658;28;20506;-80
2024/03/14 04:24:32;;;;;;;20.63;14.90;;;;;;;;;;4994367;28;20496;-81
2024/03/14 04:26:58;;;;;;;25.27;17.10;;;;;;;;;;4994593;28;20459;-79
2024/03/14 04:29:26;;;;;;;26.63;17.47;;;;;;;;;;4994939;28;20466;-78
2024/03/14 04:31:52;;;;;;;23.83;14.67;;;;;;;;;;4994212;28;20483;-83
2024/03/14 04:34:20;;;;;;;25.50;16.10;;;;;;;;;;4995329;28;20532;-78
2024/03/14 04:36:46;;;;;;;23.03;16.70;;;;;;;;;;4995400;28;20421;-77
2024/03/14 04:39:14;;;;;;;20.87;15.00;;;;;;;;;;4993897;28;20534;-77
2024/03/14 04:41:40;;;;;;;21.77;15.47;;;;;;;;;;4995268;28;20440;-76
2024/03/14 04:44:07;;;;;;;23.17;15.77;;;;;;;;;;4994917;28;20418;-76
2024/03/14 04:46:33;;;;;;;23.67;15.73;;;;;;;;;;4995261;28;20421;-77
2024/03/14 04:48:59;;;;;;;22.80;14.80;;;;;;;;;;4995255;28;20428;-77
2024/03/14 04:51:25;;;;;;;23.13;15.83;;;;;;;;;;4995080;28;20442;-84
2024/03/14 04:53:51;;;;;;;20.80;14.27;;;;;;;;;;4994675;28;20422;-79
2024/03/14 04:56:17;;;;;;;19.20;14.60;;;;;;;;;;4995050;28;20262;-81
2024/03/14 04:58:43;;;;;;;21.53;14.90;;;;;;;;;;4994486;28;20217;-79
2024/03/14 05:01:10;;;;;;;21.90;14.87;;;;;;;;;;4995003;28;20181;-83
2024/03/14 05:03:35;;;;;;;17.87;14.07;;;;;;;;;;4994898;28;20419;-80
2024/03/14 05:06:03;;;;;;;22.03;14.53;;;;;;;;;;4994775;28;20720;-80
2024/03/14 05:08:29;;;;;;;21.37;13.93;;;;;;;;;;4994780;28;20621;-78
2024/03/14 05:10:55;;;;;;;22.47;14.63;;;;;;;;;;4994671;28;20552;-82
2024/03/14 05:13:21;;;;;;;22.47;15.47;;;;;;;;;;4993373;28;20451;-77
2024/03/14 05:15:47;;;;;;;21.63;15.20;;;;;;;;;;4994341;28;20828;-81
2024/03/14 05:18:13;;;;;;;21.30;15.43;;;;;;;;;;4994595;28;20209;-78
2024/03/14 05:20:39;;;;;;;18.33;14.50;;;;;;;;;;4994590;28;20419;-78
2024/03/14 05:23:05;;;;;;;21.40;15.50;;;;;;;;;;4994486;28;20401;-79
2024/03/14 05:25:31;;;;;;;21.57;13.63;;;;;;;;;;4993198;28;20425;-80
2024/03/14 05:27:57;;;;;;;22.67;15.33;;;;;;;;;;4994437;28;20421;-79
2024/03/14 05:30:24;;;;;;;21.37;15.50;;;;;;;;;;4993836;28;20230;-78
2024/03/14 05:32:51;;;;;;;21.33;15.17;;;;;;;;;;4994302;28;20419;-78
2024/03/14 05:35:18;;;;;;;23.50;16.30;;;;;;;;;;4994225;28;20416;-78
2024/03/14 05:37:44;;;;;;;23.23;16.60;;;;;;;;;;4994116;28;20412;-78
2024/03/14 05:40:10;;;;;;;21.77;15.97;;;;;;;;;;4993007;28;20820;-78
2024/03/14 05:42:36;;;;;;;23.67;16.13;;;;;;;;;;4994206;28;20416;-78
2024/03/14 05:45:04;;;;;;;24.07;15.80;;;;;;;;;;4993737;28;20976;-79
2024/03/14 05:47:30;;;;;;;24.30;15.43;;;;;;;;;;4994147;28;20794;-77
2024/03/14 05:49:56;;;;;;;23.13;16.27;;;;;;;;;;4994065;28;20414;-78
2024/03/14 05:52:22;;;;;;;25.53;18.07;;;;;;;;;;4994060;28;20209;-77
2024/03/14 05:54:48;;;;;;;24.70;17.30;;;;;;;;;;4993942;28;20415;-77
2024/03/14 05:57:14;;;;;;;24.80;17.27;;;;;;;;;;4994021;28;20415;-79
2024/03/14 05:59:40;;;;;;;23.00;15.97;;;;;;;;;;4993392;28;20471;-78
2024/03/14 06:02:09;;;;;;;23.90;16.77;;;;;;;;;;4993595;28;20399;-77
2024/03/14 06:04:35;;;;;;;26.77;17.87;;;;;;;;;;4992169;28;20444;-77
2024/03/14 06:07:01;;;;;;;23.23;16.03;;;;;;;;;;4993194;28;20406;-77
2024/03/14 06:09:41;;;;;;;26.20;16.53;;;;;;;;;;4993730;28;20751;-78
2024/03/14 06:12:13;;;;;;;25.80;17.30;;;;;;;;;;4993835;28;20174;-80
2024/03/14 06:14:39;;;;;;;22.90;17.60;;;;;;;;;;4993587;28;20908;-81
2024/03/14 06:17:05;;;;;;;28.27;17.83;;;;;;;;;;4993682;28;20475;-80
2024/03/14 06:19:31;;;;;;;25.30;17.40;;;;;;;;;;4993618;28;20532;-78
2024/03/14 06:21:57;;;;;;;23.30;16.30;;;;;;;;;;4993653;28;20411;-77
2024/03/14 06:24:24;;;;;;;27.43;18.00;;;;;;;;;;4993320;28;20892;-84
2024/03/14 06:26:50;;;;;;;26.40;16.47;;;;;;;;;;4993414;28;20417;-83
2024/03/14 06:29:16;;;;;;;21.73;17.10;;;;;;;;;;4992838;28;21040;-82
2024/03/14 06:31:42;;;;;;;22.10;16.90;;;;;;;;;;4993661;28;20176;-83
2024/03/14 06:34:11;;;;;;;19.97;15.60;;;;;;;;;;4993432;28;20515;-77
2024/03/14 06:36:37;;;;;;;29.93;16.30;;;;;;;;;;4993425;28;20458;-78
2024/03/14 06:39:07;;;;;;;23.43;17.33;;;;;;;;;;4993130;28;21041;-79
2024/03/14 06:41:34;;;;;;;24.70;15.13;;;;;;;;;;4993443;28;20169;-77
2024/03/14 06:44:01;;;;;;;22.20;16.70;;;;;;;;;;4993118;28;20660;-78
2024/03/14 06:46:28;;;;;;;23.17;17.17;;;;;;;;;;4993355;28;20929;-78
2024/03/14 06:48:54;;;;;;;26.00;18.47;;;;;;;;;;4992100;28;20422;-77
2024/03/14 06:51:20;;;;;;;25.40;16.73;;;;;;;;;;4993410;28;20414;-85
2024/03/14 06:53:46;;;;;;;20.63;15.30;;;;;;;;;;4993254;28;20183;-78
2024/03/14 06:56:15;;;;;;;20.67;15.90;;;;;;;;;;4992203;28;20229;-81
2024/03/14 06:58:41;;;;;;;22.03;15.80;;;;;;;;;;4992828;28;20472;-84
2024/03/14 07:01:08;;;;;;;17.57;13.83;;;;;;;;;;4991993;28;20488;-78
2024/03/14 07:03:34;;;;;;;18.50;13.60;;;;;;;;;;4993142;28;20441;-83
2024/03/14 07:06:00;;;;;;;22.50;15.33;;;;;;;;;;4993237;28;20425;-85
2024/03/14 07:08:29;;;;;;;17.47;14.20;;;;;;;;;;4993349;28;20500;-78
2024/03/14 07:10:55;;;;;;;19.23;15.40;;;;;;;;;;4993222;28;20406;-81
2024/03/14 07:13:21;;;;;;;18.70;13.03;;;;;;;;;;4992820;28;20424;-78
2024/03/14 07:15:47;;;;;;;24.27;16.00;;;;;;;;;;4993118;28;20405;-80
2024/03/14 07:18:14;;;;;;;18.10;14.07;;;;;;;;;;4996044;28;20455;-84
2024/03/14 07:20:43;;;;;;;15.07;12.63;;;;;;;;;;4996872;28;20421;-83
2024/03/14 07:23:10;;;;;;;18.43;14.40;;;;;;;;;;4996713;28;20418;-79
2024/03/14 07:25:36;;;;;;;20.07;13.57;;;;;;;;;;4996738;28;20421;-82
2024/03/14 07:28:02;;;;;;;16.70;13.60;;;;;;;;;;4996381;28;20420;-78
2024/03/14 07:30:30;;;;;;;19.50;14.37;;;;;;;;;;4996059;28;20466;-82
2024/03/14 07:32:57;;;;;;;19.57;15.47;;;;;;;;;;4996435;28;20448;-84
2024/03/14 07:35:23;;;;;;;16.60;12.03;;;;;;;;;;4996507;28;20411;-79
2024/03/14 07:37:49;;;;;;;18.40;14.23;;;;;;;;;;4996304;28;20425;-78
2024/03/14 07:40:16;;;;;;;20.73;15.20;;;;;;;;;;4996456;28;20911;-78
2024/03/14 07:42:43;;;;;;;19.70;13.70;;;;;;;;;;4996358;28;20965;-78
2024/03/14 07:45:16;;;;;;;19.50;13.33;;;;;;;;;;4994836;28;20904;-77
2024/03/14 07:47:42;;;;;;;19.47;14.33;;;;;;;;;;4996201;28;20442;-77
2024/03/14 07:50:08;;;;;;;18.20;13.23;;;;;;;;;;4996266;28;20419;-76
2024/03/14 07:52:34;;;;;;;18.90;13.47;;;;;;;;;;4996077;28;20258;-76
2024/03/14 07:55:01;;;;;;;17.30;12.50;;;;;;;;;;4996067;28;20821;-76
2024/03/14 07:57:28;;;;;;;17.40;13.50;;;;;;;;;;4996047;28;20403;-82
2024/03/14 07:59:56;;;;;;;17.43;13.87;;;;;;;;;;4994213;28;20518;-79
2024/03/14 08:02:24;;;;;;;19.47;13.17;;;;;;;;;;4995485;28;20462;-78
2024/03/14 08:04:50;;;;;;;17.93;14.37;;;;;;;;;;4995662;28;20422;-79
2024/03/14 08:07:18;;;;;;;18.90;14.20;;;;;;;;;;4995613;28;20414;-78
2024/03/14 08:09:44;;;;;;;18.33;15.00;;;;;;;;;;4995721;28;20532;-78
2024/03/14 08:12:10;;;;;;;17.80;14.40;;;;;;;;;;4995758;28;20512;-78
2024/03/14 08:14:36;;;;;;;15.50;13.00;;;;;;;;;;4995468;28;20419;-78
2024/03/14 08:17:07;;;;;;;14.63;12.60;;;;;;;;;;4995713;28;20896;-79
2024/03/14 08:19:37;;;;;;;15.50;12.17;;;;;;;;;;4995701;28;20475;-78
2024/03/14 08:22:06;;;;;;;13.83;11.40;;;;;;;;;;4995560;28;20407;-79
2024/03/14 08:24:42;;;;;;;17.20;13.17;;;;;;;;;;4995534;28;20164;-79
2024/03/14 08:27:09;;;;;;;22.90;15.50;;;;;;;;;;4995625;28;20462;-78
2024/03/14 08:29:36;;;;;;;14.20;11.20;;;;;;;;;;4994248;28;20557;-78
2024/03/14 08:32:03;;;;;;;15.23;12.33;;;;;;;;;;4995505;28;20423;-80
2024/03/14 08:34:29;;;;;;;15.87;12.87;;;;;;;;;;4995496;28;20419;-79
2024/03/14 08:36:58;;;;;;;16.80;11.60;;;;;;;;;;4995389;28;20419;-80
2024/03/14 08:39:27;;;;;;;16.20;12.87;;;;;;;;;;4995167;28;20472;-79
2024/03/14 08:41:53;;;;;;;14.60;12.07;;;;;;;;;;4993796;28;20933;-79
2024/03/14 08:44:23;;;;;;;14.17;10.50;;;;;;;;;;4993674;28;20488;-80
2024/03/14 08:46:49;;;;;;;14.23;10.73;;;;;;;;;;4995183;28;20504;-78
2024/03/14 08:49:16;;;;;;;13.53;11.30;;;;;;;;;;4993858;28;20419;-81
2024/03/14 08:51:42;;;;;;;15.37;11.73;;;;;;;;;;4993713;28;20417;-77
2024/03/14 08:54:28;;;;;;;13.10;10.63;;;;;;;;;;4995037;28;20425;-79
2024/03/14 08:56:58;;;;;;;12.03;9.77;;;;;;;;;;4994910;28;20503;-81
2024/03/14 08:59:24;;;;;;;13.20;10.40;;;;;;;;;;4994442;28;20953;-79
2024/03/14 09:01:50;;;;;;;10.00;8.53;;;;;;;;;;4994941;28;20426;-78
2024/03/14 09:04:18;;;;;;;10.03;8.63;;;;;;;;;;4994786;28;20912;-77
2024/03/14 09:06:45;;;;;;;11.00;8.70;;;;;;;;;;4994769;28;20925;-76
2024/03/14 09:09:23;;;;;;;10.53;8.20;;;;;;;;;;4997018;28;20511;-77
2024/03/14 09:11:50;;;;;;;11.10;8.10;;;;;;;;;;4994808;28;20503;-77
2024/03/14 09:14:16;;;;;;;10.87;8.53;;;;;;;;;;4994336;28;20835;-78
2024/03/14 09:16:44;;;;;;;8.27;6.80;;;;;;;;;;4994570;28;20498;-77
2024/03/14 09:19:10;;;;;;;7.80;6.67;;;;;;;;;;4994473;28;20619;-78
2024/03/14 09:21:36;;;;;;;8.77;7.90;;;;;;;;;;4993368;28;20511;-77
2024/03/14 09:24:02;;;;;;;8.10;7.30;;;;;;;;;;4994507;28;20180;-79
2024/03/14 09:26:28;;;;;;;7.53;6.73;;;;;;;;;;4994393;28;20633;-78
2024/03/14 09:28:54;;;;;;;8.70;7.03;;;;;;;;;;4993848;28;20469;-80
2024/03/14 09:31:20;;;;;;;8.20;6.67;;;;;;;;;;4994195;28;20498;-79
2024/03/14 09:33:46;;;;;;;7.87;6.60;;;;;;;;;;4994239;28;20418;-77
2024/03/14 09:36:13;;;;;;;8.13;7.30;;;;;;;;;;4994254;28;20403;-77
2024/03/14 09:38:40;;;;;;;7.77;6.97;;;;;;;;;;4994166;28;20305;-79
2024/03/14 09:41:06;;;;;;;9.17;7.03;;;;;;;;;;4994041;28;20418;-79
2024/03/14 09:43:33;;;;;;;9.63;6.10;;;;;;;;;;4993680;28;20477;-79
2024/03/14 09:46:00;;;;;;;7.50;6.80;;;;;;;;;;4994086;28;20958;-79
2024/03/14 09:48:28;;;;;;;7.87;6.87;;;;;;;;;;4992469;28;20462;-78
2024/03/14 09:50:56;;;;;;;6.90;6.17;;;;;;;;;;4992687;28;20490;-79
2024/03/14 09:53:28;;;;;;;8.10;7.30;;;;;;;;;;4993991;28;20409;-83
2024/03/14 09:55:58;;;;;;;6.83;6.00;;;;;;;;;;4993814;28;21009;-78
2024/03/14 09:58:24;;;;;;;7.57;6.37;;;;;;;;;;4992439;28;20419;-80
2024/03/14 10:00:54;;;;;;;8.70;6.20;;;;;;;;;;4993879;28;20417;-79
2024/03/14 10:03:21;;;;;;;5.47;4.57;;;;;;;;;;4992637;28;20455;-80
2024/03/14 10:05:51;;;;;;;9.37;5.30;;;;;;;;;;4993833;28;20768;-79
2024/03/14 10:08:19;;;;;;;6.97;5.83;;;;;;;;;;4993763;28;20489;-80
2024/03/14 10:10:45;;;;;;;5.30;4.80;;;;;;;;;;4993812;28;20421;-80
2024/03/14 10:13:11;;;;;;;5.93;4.80;;;;;;;;;;4993428;28;20772;-80
2024/03/14 10:15:37;;;;;;;7.03;4.60;;;;;;;;;;4993767;28;20183;-80
2024/03/14 10:18:04;;;;;;;5.93;4.77;;;;;;;;;;4993565;28;20438;-81
2024/03/14 10:20:35;;;;;;;5.03;4.00;;;;;;;;;;4993725;28;20175;-79
2024/03/14 10:23:01;;;;;;;4.27;3.87;;;;;;;;;;4993552;28;20426;-83
2024/03/14 10:25:28;;;;;;;5.73;3.93;;;;;;;;;;4993378;28;20407;-79
2024/03/14 10:27:57;;;;;;;6.00;5.13;;;;;;;;;;4992843;28;20461;-78
2024/03/14 10:30:27;;;;;;;6.77;3.80;;;;;;;;;;4993139;28;21010;-83
2024/03/14 10:32:55;;;;;;;7.60;4.23;;;;;;;;;;4993221;28;20498;-78
2024/03/14 10:35:21;;;;;;;3.93;3.57;;;;;;;;;;4993223;28;20419;-79
2024/03/14 10:37:48;;;;;;;9.93;4.13;;;;;;;;;;4993064;28;20399;-79
2024/03/14 10:40:18;;;;;;;4.97;4.00;;;;;;;;;;4994192;28;20899;-82
2024/03/14 10:42:48;;;;;;;4.60;2.60;;;;;;;;;;4994611;28;20417;-83
2024/03/14 10:45:16;;;;;;;5.37;3.23;;;;;;;;;;4994162;28;20419;-85
2024/03/14 10:47:42;;;;;;;4.30;2.80;;;;;;;;;;4994047;28;20407;-86
2024/03/14 10:50:16;;;;;;;4.63;3.90;;;;;;;;;;4993687;28;20473;-85
2024/03/14 10:52:45;;;;;;;4.13;2.27;;;;;;;;;;4996088;28;20753;-84
2024/03/14 10:55:24;;;;;;;5.73;3.50;;;;;;;;;;4997692;28;20422;-85
2024/03/14 10:57:51;;;;;;;4.73;3.63;;;;;;;;;;4996970;28;20504;-84
2024/03/14 11:00:21;;;;;;;4.73;3.90;;;;;;;;;;4994388;28;20419;-84
2024/03/14 11:02:49;;;;;;;6.03;3.87;;;;;;;;;;4996705;28;20414;-82
2024/03/14 11:05:17;;;;;;;6.63;4.03;;;;;;;;;;4996429;28;20418;-82
2024/03/14 11:07:51;;;;;;;6.47;3.37;;;;;;;;;;4996666;28;20442;-84
2024/03/14 11:10:23;;;;;;;5.60;4.10;;;;;;;;;;4996856;28;20427;-82
2024/03/14 11:12:50;;;;;;;4.33;3.93;;;;;;;;;;4997060;28;20466;-90
2024/03/14 11:15:21;;;;;;;5.30;4.00;;;;;;;;;;4997118;28;20523;-84
2024/03/14 11:17:50;;;;;;;5.10;4.60;;;;;;;;;;4997446;28;20509;-93
2024/03/14 11:20:19;;;;;;;6.63;4.30;;;;;;;;;;4998010;28;20419;-85
2024/03/14 11:22:50;;;;;;;5.17;3.27;;;;;;;;;;4998835;28;20472;-83
2024/03/14 11:25:17;;;;;;;5.20;4.17;;;;;;;;;;4998481;28;20413;-83
2024/03/14 11:27:44;;;;;;;4.60;3.80;;;;;;;;;;4998096;28;20440;-85
2024/03/14 11:30:16;;;;;;;5.33;3.97;;;;;;;;;;4997735;28;20567;-88
2024/03/14 11:32:58;;;;;;;5.40;3.53;;;;;;;;;;4998362;28;20442;-82
2024/03/14 11:35:43;;;;;;;4.33;3.43;;;;;;;;;;4997081;28;20440;-81
2024/03/14 11:38:15;;;;;;;5.57;4.73;;;;;;;;;;4997860;28;20419;-84
2024/03/14 11:41:02;;;;;;;5.80;3.57;;;;;;;;;;4997880;28;20457;-86
2024/03/14 11:43:28;;;;;;;6.60;4.83;;;;;;;;;;4998034;28;20448;-88
2024/03/14 11:45:54;;;;;;;5.00;4.50;;;;;;;;;;4997362;28;20496;-79
2024/03/14 11:48:23;;;;;;;6.53;4.63;;;;;;;;;;4995958;28;20451;-80
2024/03/14 11:50:52;;;;;;;5.50;3.87;;;;;;;;;;4995947;28;20521;-81
2024/03/14 11:53:20;;;;;;;4.20;2.80;;;;;;;;;;4995989;28;20890;-81
2024/03/14 11:55:46;;;;;;;4.37;2.00;;;;;;;;;;4996049;28;20468;-81
2024/03/14 11:58:14;;;;;;;2.37;1.40;;;;;;;;;;4995612;28;20907;-82
2024/03/14 12:00:40;;;;;;;5.07;1.57;;;;;;;;;;4995765;28;20418;-81
2024/03/14 12:03:07;;;;;;;2.60;1.50;;;;;;;;;;4994737;28;20745;-82
2024/03/14 12:05:38;;;;;;;3.43;1.90;;;;;;;;;;4995513;28;20713;-80
2024/03/14 12:08:06;;;;;;;4.80;2.60;;;;;;;;;;4995817;28;20418;-81
2024/03/14 12:10:32;;;;;;;3.37;1.67;;;;;;;;;;4995660;28;20430;-81
2024/03/14 12:12:59;;;;;;;4.67;1.90;;;;;;;;;;4995239;28;20415;-81
2024/03/14 12:15:25;;;;;;;3.23;1.90;;;;;;;;;;4995520;28;20576;-80
2024/03/14 12:17:58;;;;;;;2.67;2.30;;;;;;;;;;4995335;28;20474;-82
2024/03/14 12:20:25;;;;;;;5.07;2.53;;;;;;;;;;4995291;28;20413;-81
2024/03/14 12:22:51;;;;;;;6.83;1.90;;;;;;;;;;4995248;28;20508;-81
2024/03/14 12:25:20;;;;;;;3.30;2.17;;;;;;;;;;4995289;28;20486;-81
2024/03/14 12:27:47;;;;;;;2.23;1.77;;;;;;;;;;4994890;28;20504;-81
2024/03/14 12:30:16;;;;;;;3.03;1.87;;;;;;;;;;4994872;28;20520;-80
2024/03/14 12:32:43;;;;;;;3.57;2.77;;;;;;;;;;4993797;28;20463;-80
2024/03/14 12:35:17;;;;;;;3.90;2.20;;;;;;;;;;4995159;28;20763;-82
2024/03/14 12:37:48;;;;;;;3.90;2.40;;;;;;;;;;4994167;28;20856;-83
2024/03/14 12:40:19;;;;;;;1.43;1.03;;;;;;;;;;4995258;28;20449;-83
2024/03/14 12:42:46;;;;;;;2.63;1.57;;;;;;;;;;4994798;28;20775;-80
2024/03/14 12:45:15;;;;;;;2.03;1.23;;;;;;;;;;4995474;28;20935;-80
2024/03/14 12:47:42;;;;;;;6.07;2.43;;;;;;;;;;4994693;28;20915;-81
2024/03/14 12:50:19;;;;;;;2.73;1.30;;;;;;;;;;4994713;28;20554;-80
2024/03/14 12:52:45;;;;;;;2.37;1.47;;;;;;;;;;4994779;28;20410;-81
2024/03/14 12:55:18;;;;;;;3.40;1.27;;;;;;;;;;4993107;28;20431;-81
2024/03/14 12:57:49;;;;;;;3.20;1.57;;;;;;;;;;4994295;28;20407;-82
2024/03/14 13:00:17;;;;;;;4.20;1.70;;;;;;;;;;4993961;28;20434;-81
2024/03/14 13:02:49;;;;;;;2.10;1.90;;;;;;;;;;4992663;28;20514;-79
2024/03/14 13:05:18;;;;;;;2.33;1.20;;;;;;;;;;4993483;28;20419;-80
2024/03/14 13:08:02;;;;;;;2.17;1.30;;;;;;;;;;4993759;28;20827;-81
2024/03/14 13:10:37;;;;;;;2.27;1.57;;;;;;;;;;4993560;28;20470;-80
2024/03/14 13:13:06;;;;;;;2.53;1.40;;;;;;;;;;4992806;28;20441;-81
2024/03/14 13:15:42;;;;;;;2.30;1.40;;;;;;;;;;4992858;28;20498;-80
2024/03/14 13:18:15;;;;;;;3.73;2.00;;;;;;;;;;4994420;28;20418;-81
2024/03/14 13:20:55;;;;;;;2.40;1.67;;;;;;;;;;4994637;28;20415;-82
2024/03/14 13:23:27;;;;;;;4.63;2.40;;;;;;;;;;4993595;28;20418;-82
2024/03/14 13:25:53;;;;;;;2.93;1.83;;;;;;;;;;4994838;28;20899;-80
2024/03/14 13:28:19;;;;;;;2.27;1.90;;;;;;;;;;4992725;28;20520;-80
2024/03/14 13:30:45;;;;;;;3.13;1.70;;;;;;;;;;4994204;28;20474;-81
2024/03/14 13:33:12;;;;;;;2.50;1.67;;;;;;;;;;4993255;28;20466;-81
2024/03/14 13:35:40;;;;;;;4.30;1.97;;;;;;;;;;4994426;28;20534;-82
2024/03/14 13:38:07;;;;;;;3.10;2.07;;;;;;;;;;4994444;28;20411;-81
2024/03/14 13:40:34;;;;;;;3.30;1.90;;;;;;;;;;4994536;28;20456;-82
2024/03/14 13:43:01;;;;;;;3.77;2.10;;;;;;;;;;4992654;28;20459;-82
2024/03/14 13:45:28;;;;;;;2.30;2.10;;;;;;;;;;4994564;28;20517;-83
2024/03/14 13:47:55;;;;;;;2.63;1.90;;;;;;;;;;4992451;28;20405;-80
2024/03/14 13:50:21;;;;;;;3.43;2.47;;;;;;;;;;4994222;28;20454;-84
2024/03/14 13:52:47;;;;;;;3.10;1.90;;;;;;;;;;4991463;28;20802;-83
2024/03/14 13:55:33;;;;;;;2.50;2.30;;;;;;;;;;4991493;28;20434;-84
2024/03/14 13:58:01;;;;;;;2.97;2.20;;;;;;;;;;4991585;28;20470;-84
2024/03/14 14:00:45;;;;;;;2.43;1.90;;;;;;;;;;4992072;28;20441;-86
2024/03/14 14:03:12;;;;;;;4.30;2.50;;;;;;;;;;4992409;28;20419;-85
2024/03/14 14:05:38;;;;;;;3.60;2.20;;;;;;;;;;4993586;28;20512;-86
2024/03/14 14:08:16;;;;;;;5.00;2.90;;;;;;;;;;4992579;28;20443;-85
2024/03/14 14:10:45;;;;;;;6.63;2.57;;;;;;;;;;4992968;28;20426;-86
2024/03/14 14:13:11;;;;;;;3.80;3.10;;;;;;;;;;4993050;28;20514;-86
2024/03/14 14:15:37;;;;;;;3.13;2.43;;;;;;;;;;4994037;28;20467;-87
2024/03/14 14:18:06;;;;;;;3.43;2.47;;;;;;;;;;4994124;28;20804;-87
2024/03/14 14:20:32;;;;;;;5.43;3.60;;;;;;;;;;4993713;28;20479;-85
2024/03/14 14:22:58;;;;;;;3.13;2.57;;;;;;;;;;4993816;28;20425;-84
2024/03/14 14:25:27;;;;;;;3.20;2.80;;;;;;;;;;4993878;28;20417;-83
2024/03/14 14:27:56;;;;;;;6.10;3.10;;;;;;;;;;4992936;28;20408;-83
2024/03/14 14:30:22;;;;;;;4.87;2.70;;;;;;;;;;4993626;28;20493;-87
2024/03/14 14:33:00;;;;;;;3.70;2.57;;;;;;;;;;4992807;28;20422;-86